Time;durP1;ratioP1;P1;durP2;ratioP2;P2;SDS_P1;SDS_P2;PMS_P1;PMS_P2;Temp;Humidity;BMP_temperature;BMP_pressure;BME280_temperature;BME280_humidity;BME280_pressure;Samples;Min_cycle;Max_cycle;Signal;HPM_P1;HPM_P2
2022/10/11 00:00:53;;;;;;;12.48;6.15;;;16.30;99.90;;;;;;5124305;27;20031;-83
2022/10/11 00:03:19;;;;;;;10.70;5.75;;;16.30;99.90;;;;;;5098212;28;20016;-82
2022/10/11 00:05:45;;;;;;;13.95;6.97;;;16.30;99.90;;;;;;5099787;28;20035;-83
2022/10/11 00:08:12;;;;;;;12.10;6.03;;;16.20;99.90;;;;;;5098558;28;20036;-82
2022/10/11 00:10:39;;;;;;;11.20;6.13;;;16.30;99.90;;;;;;5096338;28;20069;-83
2022/10/11 00:13:05;;;;;;;14.55;5.97;;;16.20;99.90;;;;;;5096214;28;20430;-83
2022/10/11 00:15:31;;;;;;;12.57;6.10;;;16.10;99.90;;;;;;5097383;28;20046;-83
2022/10/11 00:17:57;;;;;;;8.73;5.95;;;16.10;99.90;;;;;;5097157;28;20476;-83
2022/10/11 00:20:23;;;;;;;10.93;6.15;;;16.00;99.90;;;;;;5112621;28;20062;-83
2022/10/11 00:22:49;;;;;;;13.25;6.53;;;16.00;99.90;;;;;;5097432;28;20502;-83
2022/10/11 00:25:16;;;;;;;15.73;7.20;;;16.00;99.90;;;;;;5095797;28;20047;-82
2022/10/11 00:27:41;;;;;;;17.58;6.57;;;15.90;99.90;;;;;;5109246;28;20245;-83
2022/10/11 00:30:08;;;;;;;15.60;6.22;;;15.90;99.90;;;;;;5097084;28;20125;-83
2022/10/11 00:32:36;;;;;;;10.50;6.20;;;15.90;99.90;;;;;;5096786;28;20041;-82
2022/10/11 00:35:05;;;;;;;13.55;7.13;;;15.80;99.90;;;;;;5096914;28;20028;-81
2022/10/11 00:37:35;;;;;;;11.20;6.53;;;15.80;99.90;;;;;;5117795;28;20024;-83
2022/10/11 00:40:02;;;;;;;11.27;7.65;;;15.80;99.90;;;;;;5107234;28;20024;-83
2022/10/11 00:42:28;;;;;;;15.93;6.82;;;15.80;99.90;;;;;;5116381;28;20032;-82
2022/10/11 00:45:26;;;;;;;12.23;7.63;;;15.80;99.90;;;;;;5098206;28;20076;-83
2022/10/11 00:48:01;;;;;;;15.40;7.90;;;15.80;99.90;;;;;;5109650;28;20050;-83
2022/10/11 00:50:29;;;;;;;15.30;7.85;;;15.80;99.90;;;;;;5096570;28;20103;-81
2022/10/11 00:53:00;;;;;;;10.30;7.55;;;15.80;99.90;;;;;;5096775;28;20020;-82
2022/10/11 00:55:30;;;;;;;11.20;7.40;;;15.80;99.90;;;;;;5117554;28;20023;-83
2022/10/11 00:57:57;;;;;;;10.40;7.43;;;15.80;99.90;;;;;;5096975;28;20016;-83
2022/10/11 01:00:23;;;;;;;10.75;7.07;;;15.80;99.90;;;;;;5115340;28;20024;-83
2022/10/11 01:02:50;;;;;;;13.35;7.25;;;15.80;99.90;;;;;;5098408;28;20028;-83
2022/10/11 01:05:17;;;;;;;11.02;6.68;;;15.80;99.90;;;;;;5096790;28;20165;-82
2022/10/11 01:07:45;;;;;;;13.07;7.05;;;15.80;99.90;;;;;;5126323;28;20020;-82
2022/10/11 01:10:11;;;;;;;12.45;7.45;;;15.80;99.90;;;;;;5112276;28;20040;-84
2022/10/11 01:12:48;;;;;;;13.30;7.07;;;15.90;99.90;;;;;;5107252;28;20035;-82
2022/10/11 01:15:30;;;;;;;11.52;7.07;;;15.90;99.90;;;;;;5090778;28;20016;-81
2022/10/11 01:18:04;;;;;;;10.43;6.85;;;15.80;99.90;;;;;;5120672;27;20024;-82
2022/10/11 01:21:00;;;;;;;14.70;7.80;;;15.90;99.90;;;;;;5096706;28;20020;-82
2022/10/11 01:23:31;;;;;;;13.70;7.60;;;15.80;99.90;;;;;;5094113;28;20028;-82
2022/10/11 01:26:33;;;;;;;12.38;6.70;;;15.90;99.90;;;;;;5100282;28;20024;-83
2022/10/11 01:29:43;;;;;;;12.93;6.95;;;15.90;99.90;;;;;;5100271;28;20016;-83
2022/10/11 01:32:37;;;;;;;11.02;6.97;;;15.80;99.90;;;;;;5099866;28;20032;-83
2022/10/11 01:35:33;;;;;;;17.25;7.28;;;15.80;99.90;;;;;;5101036;28;20032;-83
2022/10/11 01:38:06;;;;;;;13.88;7.20;;;15.80;99.90;;;;;;5095760;28;20036;-83
2022/10/11 01:40:43;;;;;;;12.60;7.65;;;15.90;99.90;;;;;;5101537;28;20028;-83
2022/10/11 01:43:09;;;;;;;8.75;6.38;;;15.90;99.90;;;;;;5109186;28;20030;-83
2022/10/11 01:45:36;;;;;;;15.85;6.18;;;15.90;99.90;;;;;;5110837;28;20015;-82
2022/10/11 01:48:10;;;;;;;15.35;7.13;;;15.90;99.90;;;;;;5103511;28;20055;-83
2022/10/11 01:50:51;;;;;;;12.65;7.53;;;15.90;99.90;;;;;;5105507;28;20022;-83
2022/10/11 01:53:44;;;;;;;13.05;6.85;;;15.90;99.90;;;;;;5099094;28;20054;-83
2022/10/11 01:56:52;;;;;;;12.15;7.43;;;15.90;99.90;;;;;;5096015;28;20488;-84
2022/10/11 01:59:41;;;;;;;8.05;6.40;;;15.90;99.90;;;;;;5080320;28;20039;-84
2022/10/11 02:02:46;;;;;;;14.68;6.68;;;15.80;99.90;;;;;;5093484;28;20495;-83
2022/10/11 02:05:37;;;;;;;10.05;6.38;;;15.80;99.90;;;;;;5067309;28;20036;-84
2022/10/11 02:08:18;;;;;;;14.07;7.75;;;15.90;99.90;;;;;;5112210;28;20040;-84
2022/10/11 02:10:51;;;;;;;;;;;15.80;99.90;;;;;;5096813;28;20044;-83
2022/10/11 02:13:26;;;;;;;14.27;7.35;;;15.80;99.90;;;;;;5099357;28;19908;-82
2022/10/11 02:15:54;;;;;;;13.45;7.22;;;15.80;99.90;;;;;;5117883;28;20035;-82
2022/10/11 02:18:24;;;;;;;15.13;7.00;;;15.80;99.90;;;;;;5108057;28;20050;-82
2022/10/11 02:20:52;;;;;;;13.73;7.25;;;15.80;99.90;;;;;;5108580;28;20016;-82
2022/10/11 02:23:32;;;;;;;12.18;7.20;;;15.80;99.90;;;;;;5101683;28;20119;-82
2022/10/11 02:26:00;;;;;;;18.50;8.27;;;15.80;99.90;;;;;;5099327;28;20024;-82
2022/10/11 02:28:30;;;;;;;15.50;7.05;;;15.80;99.90;;;;;;5107556;28;20032;-82
2022/10/11 02:30:58;;;;;;;12.30;6.68;;;15.70;99.90;;;;;;5099036;28;20080;-83
2022/10/11 02:33:44;;;;;;;9.05;6.55;;;15.70;99.90;;;;;;5098809;28;20026;-83
2022/10/11 02:36:20;;;;;;;11.57;7.72;;;15.70;99.90;;;;;;5101907;28;20031;-82
2022/10/11 02:38:54;;;;;;;13.52;7.20;;;15.70;99.90;;;;;;5099528;28;20066;-83
2022/10/11 02:41:20;;;;;;;8.73;7.18;;;15.70;99.90;;;;;;5114775;28;20024;-83
2022/10/11 02:43:59;;;;;;;10.02;6.93;;;15.70;99.90;;;;;;5098876;28;20027;-83
2022/10/11 02:46:29;;;;;;;9.98;7.28;;;15.70;99.90;;;;;;5098506;28;20020;-84
2022/10/11 02:48:59;;;;;;;10.30;7.25;;;15.60;99.90;;;;;;5097636;28;20103;-84
2022/10/11 02:51:29;;;;;;;11.80;6.95;;;15.60;99.90;;;;;;5098725;28;20036;-84
2022/10/11 02:53:55;;;;;;;16.73;7.03;;;15.60;99.90;;;;;;5107668;28;20361;-83
2022/10/11 02:56:20;;;;;;;12.77;7.25;;;15.60;99.90;;;;;;5111572;28;20028;-83
2022/10/11 02:58:47;;;;;;;10.00;7.30;;;15.60;99.90;;;;;;5100456;28;20031;-84
2022/10/11 03:01:12;;;;;;;13.02;7.25;;;15.50;99.90;;;;;;5098553;28;20040;-83
2022/10/11 03:03:38;;;;;;;14.57;7.40;;;15.50;99.90;;;;;;5100919;28;20154;-84
2022/10/11 03:06:04;;;;;;;14.23;7.47;;;15.50;99.90;;;;;;5100305;28;20031;-83
2022/10/11 03:08:30;;;;;;;12.02;7.47;;;15.50;99.90;;;;;;5099068;28;20024;-82
2022/10/11 03:10:56;;;;;;;10.27;6.50;;;15.50;99.90;;;;;;5099000;28;20085;-83
2022/10/11 03:13:22;;;;;;;14.38;7.70;;;15.40;99.90;;;;;;5109921;28;20054;-83
2022/10/11 03:15:49;;;;;;;12.52;8.55;;;15.40;99.90;;;;;;5108297;28;20471;-83
2022/10/11 03:18:16;;;;;;;11.73;7.63;;;15.40;99.90;;;;;;5114255;28;20027;-82
2022/10/11 03:20:42;;;;;;;12.95;8.13;;;15.40;99.90;;;;;;5113754;28;20035;-82
2022/10/11 03:23:08;;;;;;;16.60;8.02;;;15.40;99.90;;;;;;5115973;28;20165;-82
2022/10/11 03:25:34;;;;;;;12.40;7.90;;;15.40;99.90;;;;;;5109717;28;20044;-83
2022/10/11 03:28:00;;;;;;;16.80;7.93;;;15.30;99.90;;;;;;5116056;28;20084;-83
2022/10/11 03:30:26;;;;;;;12.80;7.50;;;15.40;99.90;;;;;;5114612;28;20023;-82
2022/10/11 03:32:51;;;;;;;14.30;7.55;;;15.40;99.90;;;;;;5115788;28;20019;-82
2022/10/11 03:35:17;;;;;;;8.85;6.75;;;15.40;99.90;;;;;;5112482;28;20026;-82
2022/10/11 03:37:44;;;;;;;16.23;7.57;;;15.30;99.90;;;;;;5113399;28;20476;-83
2022/10/11 03:40:10;;;;;;;12.50;8.00;;;15.30;99.90;;;;;;5108471;28;20480;-83
2022/10/11 03:42:37;;;;;;;12.38;7.65;;;15.30;99.90;;;;;;5116370;27;20079;-83
2022/10/11 03:45:07;;;;;;;11.75;8.38;;;15.30;99.90;;;;;;5112783;28;20020;-83
2022/10/11 03:47:37;;;;;;;10.88;6.80;;;15.30;99.90;;;;;;5113824;28;20020;-82
2022/10/11 03:50:05;;;;;;;14.60;7.18;;;15.30;99.90;;;;;;5111154;28;20016;-82
2022/10/11 03:52:31;;;;;;;14.38;8.35;;;15.20;99.90;;;;;;5129854;27;20391;-83
2022/10/11 03:54:57;;;;;;;11.35;7.97;;;15.30;99.90;;;;;;5114250;28;20024;-83
2022/10/11 03:57:23;;;;;;;11.57;8.27;;;15.30;99.90;;;;;;5115618;28;20078;-82
2022/10/11 03:59:48;;;;;;;13.55;7.72;;;15.20;99.90;;;;;;5110255;28;20103;-82
2022/10/11 04:02:15;;;;;;;16.20;7.63;;;15.20;99.90;;;;;;5112567;28;20028;-83
2022/10/11 04:04:41;;;;;;;13.68;7.93;;;15.20;99.90;;;;;;5113954;28;20494;-83
2022/10/11 04:07:07;;;;;;;12.57;8.15;;;15.20;99.90;;;;;;5113714;28;20027;-83
2022/10/11 04:09:33;;;;;;;11.90;8.50;;;15.20;99.90;;;;;;5109694;28;20050;-81
2022/10/11 04:11:59;;;;;;;13.02;8.63;;;15.20;99.90;;;;;;5115768;28;20027;-82
2022/10/11 04:14:25;;;;;;;19.58;7.80;;;15.10;99.90;;;;;;5110710;28;20475;-82
2022/10/11 04:16:52;;;;;;;18.40;9.13;;;15.20;99.90;;;;;;5116549;28;20483;-83
2022/10/11 04:19:17;;;;;;;10.27;8.25;;;15.10;99.90;;;;;;5115228;28;20024;-82
2022/10/11 04:21:43;;;;;;;14.38;9.35;;;15.10;99.90;;;;;;5115158;28;20015;-82
2022/10/11 04:24:12;;;;;;;19.20;8.73;;;15.10;99.90;;;;;;5129005;28;20030;-83
2022/10/11 04:26:38;;;;;;;16.02;7.85;;;15.00;99.90;;;;;;5114099;28;20007;-84
2022/10/11 04:29:04;;;;;;;10.68;8.70;;;15.00;99.90;;;;;;5116645;28;20028;-83
2022/10/11 04:31:31;;;;;;;11.35;8.52;;;15.00;99.90;;;;;;5115388;28;20027;-84
2022/10/11 04:33:56;;;;;;;11.30;8.30;;;15.00;99.90;;;;;;5114392;28;20468;-83
2022/10/11 04:36:23;;;;;;;11.52;9.13;;;14.90;99.90;;;;;;5114271;28;20047;-84
2022/10/11 04:38:49;;;;;;;16.48;9.27;;;14.90;99.90;;;;;;5114403;28;20043;-83
2022/10/11 04:41:15;;;;;;;15.20;8.90;;;14.90;99.90;;;;;;5113907;28;20019;-83
2022/10/11 04:43:41;;;;;;;18.63;9.18;;;14.80;99.90;;;;;;5110299;28;20049;-83
2022/10/11 04:46:08;;;;;;;13.70;8.85;;;14.80;99.90;;;;;;5109064;28;20023;-82
2022/10/11 04:48:35;;;;;;;20.63;8.50;;;14.70;99.90;;;;;;5113173;28;20024;-82
2022/10/11 04:51:01;;;;;;;12.88;8.32;;;14.70;99.90;;;;;;5114138;28;20111;-83
2022/10/11 04:53:27;;;;;;;12.85;9.18;;;14.60;99.90;;;;;;5118076;28;20023;-84
2022/10/11 04:56:02;;;;;;;13.00;8.98;;;14.60;99.90;;;;;;5118594;28;20023;-84
2022/10/11 04:58:29;;;;;;;16.13;9.77;;;14.60;99.90;;;;;;5113331;28;20111;-84
2022/10/11 05:00:56;;;;;;;12.10;9.15;;;14.60;99.90;;;;;;5115154;28;20075;-84
2022/10/11 05:03:22;;;;;;;17.33;9.27;;;14.50;99.90;;;;;;5119939;28;20051;-83
2022/10/11 05:05:48;;;;;;;19.13;9.63;;;14.50;99.90;;;;;;5116218;28;20102;-84
2022/10/11 05:08:14;;;;;;;13.60;10.00;;;14.50;99.90;;;;;;5115962;28;20103;-84
2022/10/11 05:10:40;;;;;;;16.05;9.88;;;14.50;99.90;;;;;;5115829;28;20132;-84
2022/10/11 05:13:06;;;;;;;12.25;9.15;;;14.40;99.90;;;;;;5133151;27;20028;-83
2022/10/11 05:15:33;;;;;;;13.52;9.50;;;14.40;99.90;;;;;;5117887;28;20037;-83
2022/10/11 05:17:59;;;;;;;12.15;9.15;;;14.30;99.90;;;;;;5118601;28;20071;-84
2022/10/11 05:20:25;;;;;;;11.23;9.75;;;14.30;99.90;;;;;;5102715;28;20430;-84
2022/10/11 05:22:52;;;;;;;13.52;9.73;;;14.20;99.90;;;;;;5099866;28;20027;-84
2022/10/11 05:25:18;;;;;;;16.30;10.15;;;14.20;99.90;;;;;;5101359;28;20430;-84
2022/10/11 05:27:44;;;;;;;11.02;9.70;;;14.20;99.90;;;;;;5101175;28;20020;-83
2022/10/11 05:30:10;;;;;;;13.10;8.80;;;14.20;99.90;;;;;;5101377;28;20042;-82
2022/10/11 05:32:36;;;;;;;13.77;10.75;;;14.20;99.90;;;;;;5118560;27;20028;-83
2022/10/11 05:35:02;;;;;;;13.77;10.15;;;14.20;99.90;;;;;;5114477;28;20518;-84
2022/10/11 05:37:27;;;;;;;17.67;10.52;;;14.20;99.90;;;;;;5099676;28;20031;-83
2022/10/11 05:39:53;;;;;;;14.63;10.48;;;14.20;99.90;;;;;;5099528;28;20161;-81
2022/10/11 05:42:19;;;;;;;11.52;9.77;;;14.10;99.90;;;;;;5102497;28;20048;-84
2022/10/11 05:44:45;;;;;;;13.52;9.30;;;14.10;99.90;;;;;;5110737;28;20030;-80
2022/10/11 05:47:11;;;;;;;11.45;10.05;;;14.00;99.90;;;;;;5129788;27;20028;-81
2022/10/11 05:49:37;;;;;;;16.85;10.27;;;14.00;99.90;;;;;;5104959;28;20070;-82
2022/10/11 05:52:02;;;;;;;13.98;9.77;;;14.00;99.90;;;;;;5108542;28;20039;-82
2022/10/11 05:54:30;;;;;;;14.02;9.98;;;14.00;99.90;;;;;;5103475;28;20024;-82
2022/10/11 05:56:55;;;;;;;12.00;10.07;;;14.00;99.90;;;;;;5115670;28;20495;-81
2022/10/11 05:59:21;;;;;;;11.73;9.63;;;14.00;99.90;;;;;;5114308;28;20050;-82
2022/10/11 06:01:48;;;;;;;17.40;10.63;;;13.90;99.90;;;;;;5122697;27;20030;-82
2022/10/11 06:04:15;;;;;;;14.75;10.55;;;13.90;99.90;;;;;;5099569;28;20016;-82
2022/10/11 06:06:41;;;;;;;20.88;14.32;;;13.90;99.90;;;;;;5099950;28;20472;-82
2022/10/11 06:09:07;;;;;;;22.33;14.77;;;13.90;99.90;;;;;;5109603;28;20368;-81
2022/10/11 06:11:33;;;;;;;19.10;12.40;;;13.90;99.90;;;;;;5101098;28;20051;-82
2022/10/11 06:13:59;;;;;;;16.60;11.20;;;13.90;99.90;;;;;;5100113;28;20016;-82
2022/10/11 06:16:25;;;;;;;16.42;10.88;;;13.80;99.90;;;;;;5100098;28;20103;-82
2022/10/11 06:18:53;;;;;;;15.32;10.98;;;13.90;99.90;;;;;;5100504;28;20077;-82
2022/10/11 06:21:19;;;;;;;13.05;10.65;;;13.80;99.90;;;;;;5089767;28;20024;-82
2022/10/11 06:23:49;;;;;;;19.13;12.10;;;13.90;99.90;;;;;;5095595;28;20024;-82
2022/10/11 06:26:16;;;;;;;23.05;13.05;;;13.80;99.90;;;;;;5114970;28;20017;-82
2022/10/11 06:28:43;;;;;;;23.95;13.43;;;13.90;99.90;;;;;;5105207;28;20039;-81
2022/10/11 06:31:09;;;;;;;16.52;12.65;;;13.90;99.90;;;;;;5116440;27;20535;-81
2022/10/11 06:33:36;;;;;;;16.33;13.40;;;14.00;99.90;;;;;;5110810;28;20184;-81
2022/10/11 06:36:09;;;;;;;18.10;12.35;;;14.00;99.90;;;;;;5099071;28;20079;-82
2022/10/11 06:38:36;;;;;;;15.32;13.60;;;14.00;99.90;;;;;;5098657;28;20046;-81
2022/10/11 06:41:21;;;;;;;20.65;14.60;;;14.10;99.90;;;;;;5099048;28;20429;-82
2022/10/11 06:43:48;;;;;;;19.63;13.70;;;14.20;99.90;;;;;;5104059;28;20022;-82
2022/10/11 06:46:15;;;;;;;15.13;13.50;;;14.20;99.90;;;;;;5113320;28;20020;-82
2022/10/11 06:48:43;;;;;;;20.98;13.93;;;14.30;99.90;;;;;;5106549;28;20376;-80
2022/10/11 06:51:10;;;;;;;20.10;14.18;;;14.30;99.90;;;;;;5103372;28;20020;-81
2022/10/11 06:53:36;;;;;;;21.55;13.57;;;14.30;99.90;;;;;;5108634;28;20437;-81
2022/10/11 06:56:07;;;;;;;18.85;14.13;;;14.40;99.90;;;;;;5098503;28;20027;-81
2022/10/11 06:58:33;;;;;;;19.70;14.88;;;14.40;99.90;;;;;;5096957;28;20112;-82
2022/10/11 07:01:05;;;;;;;22.65;15.05;;;14.50;99.90;;;;;;5104537;28;20027;-81
2022/10/11 07:03:31;;;;;;;30.83;14.02;;;14.50;99.90;;;;;;5096807;28;20024;-81
2022/10/11 07:06:02;;;;;;;23.98;14.88;;;14.60;99.90;;;;;;5100654;28;20024;-81
2022/10/11 07:08:28;;;;;;;21.60;15.07;;;14.70;99.90;;;;;;5112404;28;20020;-81
2022/10/11 07:11:19;;;;;;;22.52;15.18;;;14.80;99.90;;;;;;5113115;28;20064;-81
2022/10/11 07:13:52;;;;;;;24.02;16.15;;;14.80;99.90;;;;;;5112836;28;20391;-81
2022/10/11 07:16:19;;;;;;;33.95;16.35;;;14.90;99.90;;;;;;5128784;27;20072;-81
2022/10/11 07:18:46;;;;;;;20.55;15.00;;;15.00;99.90;;;;;;5116173;28;20023;-81
2022/10/11 07:21:14;;;;;;;16.98;15.18;;;15.10;99.90;;;;;;5114859;28;20022;-82
2022/10/11 07:23:40;;;;;;;19.73;14.43;;;15.20;99.90;;;;;;5114172;28;20026;-81
2022/10/11 07:26:07;;;;;;;21.85;13.93;;;15.20;99.90;;;;;;5113147;28;20031;-81
2022/10/11 07:28:34;;;;;;;23.42;15.07;;;15.30;99.90;;;;;;5116244;28;20032;-82
2022/10/11 07:31:15;;;;;;;21.73;14.43;;;15.40;99.90;;;;;;5114839;28;20031;-82
2022/10/11 07:33:41;;;;;;;18.92;14.35;;;15.50;99.90;;;;;;5128241;27;20070;-82
2022/10/11 07:36:08;;;;;;;18.10;13.05;;;15.60;99.90;;;;;;5108719;28;20024;-82
2022/10/11 07:38:34;;;;;;;17.80;14.00;;;15.70;99.90;;;;;;5114754;28;20038;-82
2022/10/11 07:41:04;;;;;;;20.05;13.68;;;15.80;99.90;;;;;;5095637;28;20024;-82
2022/10/11 07:43:30;;;;;;;19.77;13.10;;;15.90;99.90;;;;;;5111417;28;20084;-82
2022/10/11 07:45:59;;;;;;;21.88;14.63;;;16.00;99.90;;;;;;5114146;28;20023;-81
2022/10/11 07:48:25;;;;;;;18.15;12.75;;;16.00;99.90;;;;;;5100719;28;20395;-82
2022/10/11 07:50:51;;;;;;;20.17;12.38;;;16.20;99.90;;;;;;5113106;28;20043;-82
2022/10/11 07:53:17;;;;;;;19.20;11.90;;;16.20;99.90;;;;;;5108233;28;20028;-81
2022/10/11 07:55:42;;;;;;;23.55;11.68;;;16.20;99.90;;;;;;5114840;28;20518;-83
2022/10/11 07:58:09;;;;;;;16.00;11.43;;;16.30;99.90;;;;;;5096927;28;20028;-83
2022/10/11 08:00:36;;;;;;;22.92;10.13;;;16.40;99.90;;;;;;5101198;28;20019;-83
2022/10/11 08:03:04;;;;;;;24.08;10.82;;;16.50;99.90;;;;;;5097851;28;20527;-85
2022/10/11 08:05:30;;;;;;;17.90;10.48;;;16.60;99.90;;;;;;5100820;28;20542;-85
2022/10/11 08:07:56;;;;;;;17.83;11.32;;;16.70;99.90;;;;;;5113807;28;20031;-83
2022/10/11 08:10:23;;;;;;;15.60;10.10;;;16.70;99.90;;;;;;5099723;28;20055;-83
2022/10/11 08:12:49;;;;;;;20.88;9.80;;;16.70;99.90;;;;;;5099251;28;20027;-83
2022/10/11 08:15:15;;;;;;;21.52;11.75;;;16.80;99.90;;;;;;5108863;28;20016;-84
2022/10/11 08:17:41;;;;;;;27.98;13.40;;;17.00;99.90;;;;;;5098977;28;20032;-84
2022/10/11 08:20:07;;;;;;;25.38;13.32;;;17.10;99.90;;;;;;5097408;28;20053;-84
2022/10/11 08:22:33;;;;;;;25.95;12.45;;;17.00;99.90;;;;;;5099677;28;20032;-83
2022/10/11 08:24:58;;;;;;;19.58;11.35;;;17.20;99.90;;;;;;5099066;28;20017;-83
2022/10/11 08:27:24;;;;;;;22.08;10.43;;;17.30;99.90;;;;;;5105205;28;20144;-83
2022/10/11 08:29:50;;;;;;;19.02;10.20;;;17.50;99.90;;;;;;5108126;28;20024;-83
2022/10/11 08:32:16;;;;;;;16.65;8.52;;;17.50;99.90;;;;;;5127485;28;20047;-83
2022/10/11 08:34:42;;;;;;;16.73;8.30;;;17.50;99.90;;;;;;5099678;28;20392;-83
2022/10/11 08:37:08;;;;;;;15.00;8.43;;;17.50;99.90;;;;;;5114826;28;20036;-83
2022/10/11 08:39:34;;;;;;;12.20;8.25;;;17.50;99.90;;;;;;5119734;28;20541;-83
2022/10/11 08:42:14;;;;;;;14.65;7.40;;;17.50;99.90;;;;;;5099703;28;20043;-83
2022/10/11 08:44:45;;;;;;;12.65;7.63;;;17.60;99.90;;;;;;5110078;28;20027;-83
2022/10/11 08:47:29;;;;;;;14.50;7.75;;;17.60;99.90;;;;;;5098172;28;20020;-84
2022/10/11 08:49:56;;;;;;;18.98;8.93;;;17.60;99.90;;;;;;5098199;28;20042;-83
2022/10/11 08:52:27;;;;;;;16.35;7.45;;;17.70;99.90;;;;;;5100097;28;20111;-82
2022/10/11 08:55:10;;;;;;;18.63;8.40;;;17.70;99.90;;;;;;5102407;28;20437;-80
2022/10/11 08:57:38;;;;;;;13.85;8.45;;;17.80;99.90;;;;;;5113542;28;20380;-82
2022/10/11 09:00:13;;;;;;;13.57;7.95;;;17.90;99.90;;;;;;5104294;28;20021;-81
2022/10/11 09:02:57;;;;;;;13.63;7.90;;;18.00;99.90;;;;;;5098209;28;20046;-81
2022/10/11 09:05:29;;;;;;;14.57;8.48;;;18.00;99.90;;;;;;5106297;28;20028;-81
2022/10/11 09:08:34;;;;;;;12.43;8.35;;;18.00;99.90;;;;;;5099867;28;20020;-82
2022/10/11 09:11:21;;;;;;;12.63;6.68;;;18.00;99.90;;;;;;5035559;28;20505;-82
2022/10/11 09:14:14;;;;;;;11.70;6.35;;;18.10;99.90;;;;;;5030972;28;20478;-82
2022/10/11 09:17:24;;;;;;;14.10;6.13;;;18.20;99.90;;;;;;5094071;28;20024;-81
2022/10/11 09:20:16;;;;;;;14.40;6.30;;;18.30;99.90;;;;;;5091505;28;20020;-82
2022/10/11 09:23:00;;;;;;;10.95;5.88;;;18.40;99.90;;;;;;5107828;28;20278;-83
2022/10/11 09:25:35;;;;;;;10.35;5.78;;;18.30;99.90;;;;;;5109972;28;20012;-83
2022/10/11 09:28:19;;;;;;;12.85;5.80;;;18.30;99.90;;;;;;5109272;28;20016;-81
2022/10/11 09:30:51;;;;;;;10.75;5.80;;;18.30;99.90;;;;;;5129819;28;20016;-81
2022/10/11 09:33:32;;;;;;;10.57;5.35;;;18.40;99.90;;;;;;5112758;28;20383;-81
2022/10/11 09:35:58;;;;;;;9.07;5.38;;;18.50;99.90;;;;;;5102419;28;20016;-82
2022/10/11 09:38:23;;;;;;;9.63;5.30;;;18.50;99.90;;;;;;5112366;28;20024;-81
2022/10/11 09:41:08;;;;;;;8.85;4.65;;;18.50;99.90;;;;;;5114433;28;20058;-80
2022/10/11 09:43:34;;;;;;;11.80;4.60;;;18.60;99.90;;;;;;5116249;28;20513;-81
2022/10/11 09:46:00;;;;;;;7.75;4.47;;;18.80;99.90;;;;;;5118110;28;20023;-81
2022/10/11 09:48:36;;;;;;;9.25;4.97;;;18.90;99.90;;;;;;5117014;28;20016;-82
2022/10/11 09:51:11;;;;;;;9.63;4.95;;;19.10;99.90;;;;;;5112704;28;20044;-81
2022/10/11 09:53:55;;;;;;;12.88;5.30;;;19.10;99.90;;;;;;5110274;28;20510;-81
2022/10/11 09:56:24;;;;;;;10.48;6.22;;;19.20;99.90;;;;;;5116920;28;20379;-82
2022/10/11 09:59:07;;;;;;;10.63;5.10;;;19.40;99.90;;;;;;5114784;28;20057;-81
2022/10/11 10:01:33;;;;;;;7.53;4.30;;;19.30;99.90;;;;;;5112875;28;20028;-82
2022/10/11 10:04:11;;;;;;;11.95;4.72;;;19.40;99.90;;;;;;5115834;28;20026;-82
2022/10/11 10:06:38;;;;;;;11.98;4.60;;;19.60;99.90;;;;;;5131818;27;20026;-82
2022/10/11 10:09:26;;;;;;;15.60;4.78;;;19.80;99.90;;;;;;5115188;28;20165;-83
2022/10/11 10:11:54;;;;;;;7.15;4.72;;;19.90;99.90;;;;;;5099377;28;20078;-82
2022/10/11 10:14:24;;;;;;;10.15;4.32;;;19.90;99.90;;;;;;5111128;28;20027;-82
2022/10/11 10:17:02;;;;;;;12.07;5.50;;;20.10;99.90;;;;;;5118145;27;20019;-82
2022/10/11 10:19:30;;;;;;;5.75;3.65;;;20.30;99.90;;;;;;5115106;28;20027;-82
2022/10/11 10:21:56;;;;;;;6.15;3.97;;;20.40;99.90;;;;;;5111022;28;20016;-82
2022/10/11 10:24:37;;;;;;;6.95;3.85;;;20.60;99.90;;;;;;5108707;28;20064;-82
2022/10/11 10:27:22;;;;;;;11.52;4.28;;;20.60;99.90;;;;;;5112321;28;20047;-84
2022/10/11 10:30:15;;;;;;;7.90;3.97;;;20.70;99.90;;;;;;5118568;28;20092;-83
2022/10/11 10:32:58;;;;;;;6.28;3.42;;;20.50;99.90;;;;;;5102665;28;20036;-82
2022/10/11 10:35:27;;;;;;;11.57;4.50;;;20.40;99.90;;;;;;5100250;28;20101;-83
2022/10/11 10:38:11;;;;;;;5.60;4.38;;;20.60;99.90;;;;;;5102788;28;20494;-83
2022/10/11 10:40:43;;;;;;;9.38;3.67;;;20.50;99.90;;;;;;5113192;28;20027;-83
2022/10/11 10:43:16;;;;;;;8.02;3.70;;;20.60;99.90;;;;;;5107270;28;20024;-82
2022/10/11 10:45:45;;;;;;;7.70;3.55;;;20.90;99.90;;;;;;5107308;28;20047;-84
2022/10/11 10:48:16;;;;;;;7.43;3.20;;;21.10;99.90;;;;;;5109829;28;20070;-82
2022/10/11 10:51:11;;;;;;;6.43;3.33;;;21.20;99.90;;;;;;5098571;28;20035;-82
2022/10/11 10:53:43;;;;;;;12.25;3.53;;;21.10;99.90;;;;;;5098742;28;20025;-82
2022/10/11 10:56:15;;;;;;;7.28;3.38;;;21.00;99.90;;;;;;5099446;28;20036;-83
2022/10/11 10:59:10;;;;;;;5.60;3.33;;;21.00;99.90;;;;;;5108091;28;20016;-82
2022/10/11 11:02:08;;;;;;;10.68;3.40;;;21.00;99.90;;;;;;5095917;28;20079;-83
2022/10/11 11:04:35;;;;;;;12.13;3.30;;;20.90;99.90;;;;;;5094773;28;20042;-84
2022/10/11 11:07:24;;;;;;;8.32;3.55;;;21.00;99.90;;;;;;5113945;28;20077;-82
2022/10/11 11:10:10;;;;;;;8.70;3.13;;;20.80;99.90;;;;;;5113950;28;20016;-83
2022/10/11 11:12:41;;;;;;;10.57;3.83;;;20.90;99.90;;;;;;5098075;28;20024;-83
2022/10/11 11:15:13;;;;;;;7.95;3.55;;;21.10;99.90;;;;;;5102597;28;20028;-84
2022/10/11 11:18:14;;;;;;;7.65;3.42;;;21.20;99.90;;;;;;5097988;28;20109;-83
2022/10/11 11:20:55;;;;;;;8.52;3.33;;;21.30;99.90;;;;;;5101464;28;20118;-83
2022/10/11 11:23:31;;;;;;;7.47;3.28;;;21.30;99.90;;;;;;5105378;28;20028;-83
2022/10/11 11:26:13;;;;;;;8.20;3.35;;;21.20;99.90;;;;;;5107946;28;20042;-83
2022/10/11 11:28:53;;;;;;;7.60;3.38;;;21.10;99.90;;;;;;5103313;28;20085;-81
2022/10/11 11:31:51;;;;;;;4.57;2.80;;;21.00;99.90;;;;;;5099592;28;20024;-83
2022/10/11 11:34:33;;;;;;;12.60;3.90;;;21.10;99.90;;;;;;5110972;28;20382;-83
2022/10/11 11:37:03;;;;;;;8.90;2.85;;;21.10;99.90;;;;;;5098340;28;20020;-82
2022/10/11 11:39:34;;;;;;;6.07;2.90;;;21.10;99.90;;;;;;5106158;28;20537;-82
2022/10/11 11:42:04;;;;;;;8.77;3.22;;;21.10;99.90;;;;;;5113180;28;20032;-83
2022/10/11 11:44:33;;;;;;;7.13;3.85;;;21.00;99.90;;;;;;5097641;28;20024;-83
2022/10/11 11:47:09;;;;;;;7.53;3.13;;;21.00;99.90;;;;;;5121190;27;20409;-83
2022/10/11 11:49:39;;;;;;;11.45;3.15;;;20.80;99.90;;;;;;5097445;28;20495;-83
2022/10/11 11:52:07;;;;;;;8.63;3.10;;;20.80;99.90;;;;;;5113175;28;20028;-82
2022/10/11 11:55:00;;;;;;;7.28;3.60;;;20.80;99.90;;;;;;5097341;28;20059;-83
2022/10/11 11:57:29;;;;;;;7.80;3.22;;;20.80;99.90;;;;;;5109793;28;20376;-83
2022/10/11 12:00:11;;;;;;;10.02;3.13;;;20.90;99.90;;;;;;5109334;28;20020;-82
2022/10/11 12:02:43;;;;;;;14.63;3.90;;;21.00;99.90;;;;;;5112169;28;20035;-83
2022/10/11 12:05:12;;;;;;;7.20;2.85;;;21.20;99.90;;;;;;5110912;28;20016;-83
2022/10/11 12:08:01;;;;;;;9.25;3.60;;;21.30;99.90;;;;;;5113120;28;20012;-83
2022/10/11 12:10:35;;;;;;;15.35;2.88;;;21.40;99.90;;;;;;5113526;28;20407;-84
2022/10/11 12:13:22;;;;;;;8.50;3.63;;;21.50;99.90;;;;;;5127626;27;20020;-82
2022/10/11 12:16:03;;;;;;;6.80;2.85;;;21.60;99.90;;;;;;5098279;28;20028;-84
2022/10/11 12:18:30;;;;;;;6.25;2.95;;;21.60;99.90;;;;;;5109147;28;20035;-83
2022/10/11 12:21:16;;;;;;;12.88;3.03;;;21.50;99.90;;;;;;5093763;28;20024;-83
2022/10/11 12:23:51;;;;;;;9.93;3.30;;;21.80;99.90;;;;;;5112682;28;20043;-84
2022/10/11 12:26:29;;;;;;;7.53;2.78;;;21.80;99.90;;;;;;5106453;28;20023;-83
2022/10/11 12:29:44;;;;;;;8.30;2.83;;;21.90;99.90;;;;;;5102234;28;20502;-84
2022/10/11 12:32:32;;;;;;;11.68;2.55;;;22.10;99.90;;;;;;5085253;28;20036;-83
2022/10/11 12:35:30;;;;;;;8.00;2.60;;;22.30;99.90;;;;;;5107628;28;20374;-83
2022/10/11 12:38:22;;;;;;;7.55;2.72;;;22.30;99.90;;;;;;5097123;28;20048;-83
2022/10/11 12:40:55;;;;;;;9.85;2.70;;;22.40;99.90;;;;;;5097529;28;20293;-83
2022/10/11 12:43:35;;;;;;;8.50;2.83;;;22.60;99.90;;;;;;5099460;28;20016;-82
2022/10/11 12:46:29;;;;;;;9.15;2.38;;;22.80;99.90;;;;;;5091533;28;20074;-82
2022/10/11 12:49:14;;;;;;;8.65;2.92;;;23.00;99.90;;;;;;5097928;28;20028;-82
2022/10/11 12:51:59;;;;;;;9.70;2.80;;;23.00;99.90;;;;;;5097266;28;20104;-82
2022/10/11 12:54:40;;;;;;;8.50;2.95;;;22.80;99.90;;;;;;5113526;28;20024;-82
2022/10/11 12:57:38;;;;;;;6.78;2.40;;;22.90;99.90;;;;;;5099838;28;20029;-84
2022/10/11 13:00:19;;;;;;;7.93;2.45;;;22.60;99.90;;;;;;5112959;28;20059;-84
2022/10/11 13:02:46;;;;;;;8.65;2.92;;;22.80;99.90;;;;;;5110358;28;20015;-84
2022/10/11 13:05:30;;;;;;;13.23;2.90;;;22.90;99.90;;;;;;5114269;28;20506;-84